sensor_id;sensor_type;location;lat;lon;timestamp;pressure;altitude;pressure_sealevel;temperature;humidity
58775;BME280;44545;47.480;19.024;2022-11-15T04:10:30;100490.78;;;6.11;100.00
58775;BME280;44545;47.480;19.024;2022-11-15T04:13:51;100490.78;;;6.11;100.00
58775;BME280;44545;47.480;19.024;2022-11-15T04:17:12;100491.00;;;5.57;100.00
58775;BME280;44545;47.480;19.024;2022-11-15T04:20:32;100500.03;;;5.50;100.00
58775;BME280;44545;47.480;19.024;2022-11-15T04:24:11;100511.94;;;5.48;100.00
58775;BME280;44545;47.480;19.024;2022-11-15T04:27:35;100501.94;;;5.53;100.00
58775;BME280;44545;47.480;19.024;2022-11-15T04:30:55;100498.47;;;5.52;100.00
58775;BME280;44545;47.480;19.024;2022-11-15T04:34:16;100501.34;;;5.45;100.00
58775;BME280;44545;47.480;19.024;2022-11-15T04:37:37;100494.13;;;5.41;100.00
58775;BME280;44545;47.480;19.024;2022-11-15T04:40:57;100488.97;;;5.41;100.00
58775;BME280;44545;47.480;19.024;2022-11-15T04:44:18;100487.84;;;5.37;100.00
58775;BME280;44545;47.480;19.024;2022-11-15T04:47:39;100488.37;;;5.33;100.00
58775;BME280;44545;47.480;19.024;2022-11-15T04:50:59;100487.94;;;5.39;100.00
58775;BME280;44545;47.480;19.024;2022-11-15T04:54:20;100471.53;;;5.38;100.00
58775;BME280;44545;47.480;19.024;2022-11-15T04:57:40;100468.63;;;5.46;100.00
58775;BME280;44545;47.480;19.024;2022-11-15T05:01:08;100472.81;;;5.55;100.00
58775;BME280;44545;47.480;19.024;2022-11-15T05:04:29;100475.09;;;5.62;100.00
58775;BME280;44545;47.480;19.024;2022-11-15T05:07:50;100475.75;;;5.60;100.00
58775;BME280;44545;47.480;19.024;2022-11-15T05:11:11;100479.00;;;5.69;100.00
58775;BME280;44545;47.480;19.024;2022-11-15T05:14:32;100478.16;;;5.80;100.00
58775;BME280;44545;47.480;19.024;2022-11-15T05:17:58;100475.09;;;5.86;100.00
58775;BME280;44545;47.480;19.024;2022-11-15T05:21:20;100479.38;;;5.85;100.00
58775;BME280;44545;47.480;19.024;2022-11-15T05:24:40;100483.22;;;5.91;100.00
58775;BME280;44545;47.480;19.024;2022-11-15T05:28:01;100483.91;;;6.00;100.00
58775;BME280;44545;47.480;19.024;2022-11-15T05:31:23;100482.47;;;6.03;100.00
58775;BME280;44545;47.480;19.024;2022-11-15T05:34:44;100478.63;;;6.10;100.00
58775;BME280;44545;47.480;19.024;2022-11-15T05:38:05;100476.50;;;6.16;100.00
58775;BME280;44545;47.480;19.024;2022-11-15T05:41:32;100483.50;;;6.05;100.00
58775;BME280;44545;47.480;19.024;2022-11-15T05:44:54;100478.53;;;6.08;100.00
58775;BME280;44545;47.480;19.024;2022-11-15T05:48:15;100475.94;;;6.20;100.00
58775;BME280;44545;47.480;19.024;2022-11-15T05:51:36;100472.34;;;6.06;100.00
58775;BME280;44545;47.480;19.024;2022-11-15T05:54:57;100473.34;;;6.20;100.00
58775;BME280;44545;47.480;19.024;2022-11-15T05:58:19;100472.22;;;6.28;100.00
58775;BME280;44545;47.480;19.024;2022-11-15T06:01:40;100472.22;;;6.28;100.00
58775;BME280;44545;47.480;19.024;2022-11-15T06:05:01;100472.56;;;6.33;100.00
58775;BME280;44545;47.480;19.024;2022-11-15T06:08:22;100465.09;;;6.38;100.00
58775;BME280;44545;47.480;19.024;2022-11-15T06:11:42;100455.44;;;6.23;100.00
58775;BME280;44545;47.480;19.024;2022-11-15T06:15:03;100450.28;;;6.23;100.00
58775;BME280;44545;47.480;19.024;2022-11-15T06:18:24;100456.56;;;6.15;100.00
58775;BME280;44545;47.480;19.024;2022-11-15T06:21:45;100465.34;;;6.17;100.00
58775;BME280;44545;47.480;19.024;2022-11-15T06:25:06;100460.41;;;6.20;100.00
58775;BME280;44545;47.480;19.024;2022-11-15T06:28:30;100470.63;;;6.19;100.00
58775;BME280;44545;47.480;19.024;2022-11-15T06:31:52;100468.06;;;6.19;100.00
58775;BME280;44545;47.480;19.024;2022-11-15T06:35:13;100470.19;;;6.24;100.00
58775;BME280;44545;47.480;19.024;2022-11-15T06:38:35;100470.28;;;6.38;100.00
58775;BME280;44545;47.480;19.024;2022-11-15T06:41:56;100468.47;;;6.48;100.00
58775;BME280;44545;47.480;19.024;2022-11-15T06:45:16;100462.38;;;6.48;100.00
58775;BME280;44545;47.480;19.024;2022-11-15T06:48:37;100465.41;;;6.54;100.00
58775;BME280;44545;47.480;19.024;2022-11-15T06:51:58;100479.06;;;6.51;100.00
58775;BME280;44545;47.480;19.024;2022-11-15T06:55:19;100471.69;;;6.58;100.00
58775;BME280;44545;47.480;19.024;2022-11-15T06:58:39;100465.38;;;6.66;100.00
58775;BME280;44545;47.480;19.024;2022-11-15T07:02:00;100465.62;;;6.57;100.00
58775;BME280;44545;47.480;19.024;2022-11-15T07:05:20;100458.19;;;6.62;100.00
58775;BME280;44545;47.480;19.024;2022-11-15T07:08:41;100467.41;;;6.70;100.00
58775;BME280;44545;47.480;19.024;2022-11-15T07:12:02;100470.78;;;6.69;100.00
58775;BME280;44545;47.480;19.024;2022-11-15T07:15:27;100456.75;;;6.90;100.00
58775;BME280;44545;47.480;19.024;2022-11-15T07:18:48;100459.62;;;7.07;100.00
58775;BME280;44545;47.480;19.024;2022-11-15T07:22:09;100460.91;;;7.13;100.00
58775;BME280;44545;47.480;19.024;2022-11-15T07:25:29;100458.50;;;7.28;100.00
58775;BME280;44545;47.480;19.024;2022-11-15T07:28:50;100444.75;;;7.29;100.00
58775;BME280;44545;47.480;19.024;2022-11-15T07:32:10;100442.41;;;7.21;100.00
58775;BME280;44545;47.480;19.024;2022-11-15T07:35:31;100455.97;;;7.16;100.00
58775;BME280;44545;47.480;19.024;2022-11-15T07:38:51;100462.66;;;7.26;100.00
58775;BME280;44545;47.480;19.024;2022-11-15T07:42:12;100455.41;;;7.34;100.00
58775;BME280;44545;47.480;19.024;2022-11-15T07:45:51;100456.00;;;7.30;100.00
58775;BME280;44545;47.480;19.024;2022-11-15T07:49:18;100454.16;;;7.15;100.00
58775;BME280;44545;47.480;19.024;2022-11-15T07:52:38;100447.37;;;7.18;100.00
58775;BME280;44545;47.480;19.024;2022-11-15T07:55:59;100444.31;;;7.23;100.00
58775;BME280;44545;47.480;19.024;2022-11-15T07:59:20;100459.34;;;7.15;100.00
58775;BME280;44545;47.480;19.024;2022-11-15T08:02:40;100469.59;;;7.39;100.00
58775;BME280;44545;47.480;19.024;2022-11-15T08:06:01;100457.75;;;7.56;100.00
58775;BME280;44545;47.480;19.024;2022-11-15T08:09:22;100448.47;;;7.59;100.00
58775;BME280;44545;47.480;19.024;2022-11-15T08:12:43;100426.75;;;7.84;100.00
58775;BME280;44545;47.480;19.024;2022-11-15T08:16:04;100439.22;;;7.90;100.00
58775;BME280;44545;47.480;19.024;2022-11-15T08:19:26;100434.34;;;7.81;100.00
58775;BME280;44545;47.480;19.024;2022-11-15T08:22:47;100441.22;;;7.67;100.00
58775;BME280;44545;47.480;19.024;2022-11-15T08:26:08;100424.53;;;7.64;100.00
58775;BME280;44545;47.480;19.024;2022-11-15T08:29:29;100421.25;;;7.66;100.00
58775;BME280;44545;47.480;19.024;2022-11-15T08:32:50;100417.56;;;7.76;100.00
58775;BME280;44545;47.480;19.024;2022-11-15T08:36:15;100405.69;;;7.79;100.00
58775;BME280;44545;47.480;19.024;2022-11-15T08:39:36;100414.53;;;7.56;100.00
58775;BME280;44545;47.480;19.024;2022-11-15T08:42:56;100423.31;;;7.45;100.00
58775;BME280;44545;47.480;19.024;2022-11-15T08:46:19;100412.16;;;7.59;100.00
58775;BME280;44545;47.480;19.024;2022-11-15T08:49:40;100415.16;;;7.66;100.00
58775;BME280;44545;47.480;19.024;2022-11-15T08:53:12;100402.47;;;7.57;100.00
58775;BME280;44545;47.480;19.024;2022-11-15T08:56:32;100402.00;;;7.63;100.00
58775;BME280;44545;47.480;19.024;2022-11-15T08:59:53;100392.19;;;7.58;100.00
58775;BME280;44545;47.480;19.024;2022-11-15T09:03:13;100397.00;;;7.52;100.00
58775;BME280;44545;47.480;19.024;2022-11-15T09:06:34;100401.56;;;7.56;100.00
58775;BME280;44545;47.480;19.024;2022-11-15T09:10:00;100396.81;;;7.63;100.00
58775;BME280;44545;47.480;19.024;2022-11-15T09:13:21;100377.22;;;7.94;100.00
58775;BME280;44545;47.480;19.024;2022-11-15T09:16:41;100379.72;;;8.06;100.00
58775;BME280;44545;47.480;19.024;2022-11-15T09:20:02;100363.88;;;8.30;100.00
58775;BME280;44545;47.480;19.024;2022-11-15T09:23:23;100371.69;;;8.71;100.00
58775;BME280;44545;47.480;19.024;2022-11-15T09:26:44;100360.66;;;8.75;100.00
58775;BME280;44545;47.480;19.024;2022-11-15T09:30:05;100358.66;;;8.56;100.00
58775;BME280;44545;47.480;19.024;2022-11-15T09:33:27;100364.56;;;8.54;100.00
58775;BME280;44545;47.480;19.024;2022-11-15T09:36:48;100367.19;;;8.40;100.00
58775;BME280;44545;47.480;19.024;2022-11-15T09:40:14;100367.75;;;8.50;100.00
58775;BME280;44545;47.480;19.024;2022-11-15T09:54:35;100355.87;;;9.11;100.00
58775;BME280;44545;47.480;19.024;2022-11-15T09:58:05;100348.91;;;9.10;100.00
58775;BME280;44545;47.480;19.024;2022-11-15T10:01:31;100355.97;;;8.98;100.00
58775;BME280;44545;47.480;19.024;2022-11-15T10:04:37;100356.56;;;8.94;100.00
58775;BME280;44545;47.480;19.024;2022-11-15T10:11:17;100337.66;;;8.96;100.00
58775;BME280;44545;47.480;19.024;2022-11-15T10:14:39;100340.34;;;8.98;100.00
58775;BME280;44545;47.480;19.024;2022-11-15T10:18:00;100333.06;;;8.77;100.00
58775;BME280;44545;47.480;19.024;2022-11-15T10:21:32;100324.19;;;8.88;100.00
58775;BME280;44545;47.480;19.024;2022-11-15T10:24:44;100312.97;;;8.75;100.00
58775;BME280;44545;47.480;19.024;2022-11-15T10:27:50;100313.50;;;8.69;100.00
58775;BME280;44545;47.480;19.024;2022-11-15T10:30:58;100316.13;;;8.69;100.00
58775;BME280;44545;47.480;19.024;2022-11-15T10:34:20;100320.88;;;8.76;100.00
58775;BME280;44545;47.480;19.024;2022-11-15T10:37:29;100304.72;;;8.67;100.00
58775;BME280;44545;47.480;19.024;2022-11-15T10:40:33;100301.56;;;8.58;100.00
58775;BME280;44545;47.480;19.024;2022-11-15T10:43:35;100296.75;;;8.64;100.00
58775;BME280;44545;47.480;19.024;2022-11-15T10:46:40;100286.44;;;8.80;100.00
58775;BME280;44545;47.480;19.024;2022-11-15T10:49:58;100291.66;;;8.80;100.00
58775;BME280;44545;47.480;19.024;2022-11-15T10:53:01;100280.19;;;8.77;100.00
58775;BME280;44545;47.480;19.024;2022-11-15T10:56:08;100281.19;;;8.79;100.00
58775;BME280;44545;47.480;19.024;2022-11-15T10:59:17;100278.84;;;8.68;100.00
58775;BME280;44545;47.480;19.024;2022-11-15T11:02:40;100263.50;;;8.88;100.00
58775;BME280;44545;47.480;19.024;2022-11-15T11:05:47;100263.69;;;9.06;100.00
58775;BME280;44545;47.480;19.024;2022-11-15T11:09:32;100254.00;;;9.03;100.00
58775;BME280;44545;47.480;19.024;2022-11-15T11:12:34;100247.44;;;9.10;100.00
58775;BME280;44545;47.480;19.024;2022-11-15T11:15:37;100257.97;;;9.11;100.00
58775;BME280;44545;47.480;19.024;2022-11-15T11:18:56;100242.12;;;9.23;100.00
58775;BME280;44545;47.480;19.024;2022-11-15T11:22:20;100238.91;;;9.27;100.00
58775;BME280;44545;47.480;19.024;2022-11-15T11:25:32;100238.22;;;9.15;100.00
58775;BME280;44545;47.480;19.024;2022-11-15T11:28:43;100232.56;;;9.22;100.00
58775;BME280;44545;47.480;19.024;2022-11-15T11:32:34;100246.84;;;8.84;100.00
58775;BME280;44545;47.480;19.024;2022-11-15T11:35:46;100235.53;;;8.69;100.00
58775;BME280;44545;47.480;19.024;2022-11-15T11:38:57;100233.19;;;8.59;100.00
58775;BME280;44545;47.480;19.024;2022-11-15T11:49:08;100229.28;;;8.09;100.00
58775;BME280;44545;47.480;19.024;2022-11-15T11:52:28;100214.81;;;8.13;100.00
58775;BME280;44545;47.480;19.024;2022-11-15T11:55:42;100211.16;;;8.24;100.00
58775;BME280;44545;47.480;19.024;2022-11-15T11:58:47;100213.37;;;8.18;100.00
58775;BME280;44545;47.480;19.024;2022-11-15T12:01:50;100215.50;;;8.10;100.00
58775;BME280;44545;47.480;19.024;2022-11-15T12:05:01;100214.03;;;8.00;100.00
58775;BME280;44545;47.480;19.024;2022-11-15T12:08:36;100194.88;;;7.98;100.00
58775;BME280;44545;47.480;19.024;2022-11-15T12:15:24;100180.75;;;8.08;100.00
58775;BME280;44545;47.480;19.024;2022-11-15T12:18:25;100176.06;;;8.02;100.00
58775;BME280;44545;47.480;19.024;2022-11-15T12:24:45;100169.28;;;8.04;100.00
58775;BME280;44545;47.480;19.024;2022-11-15T12:28:06;100163.94;;;8.16;100.00
58775;BME280;44545;47.480;19.024;2022-11-15T12:34:40;100161.47;;;8.48;100.00
58775;BME280;44545;47.480;19.024;2022-11-15T12:37:49;100167.94;;;8.39;100.00
58775;BME280;44545;47.480;19.024;2022-11-15T12:41:13;100156.41;;;8.21;100.00
58775;BME280;44545;47.480;19.024;2022-11-15T12:47:41;100152.19;;;8.08;100.00
58775;BME280;44545;47.480;19.024;2022-11-15T12:50:56;100144.91;;;7.88;100.00
58775;BME280;44545;47.480;19.024;2022-11-15T12:57:29;100134.50;;;7.88;100.00
58775;BME280;44545;47.480;19.024;2022-11-15T13:03:34;100134.75;;;7.77;100.00
58775;BME280;44545;47.480;19.024;2022-11-15T13:06:48;100136.25;;;7.74;100.00
58775;BME280;44545;47.480;19.024;2022-11-15T13:09:53;100137.84;;;7.72;100.00
58775;BME280;44545;47.480;19.024;2022-11-15T13:12:57;100127.84;;;7.78;100.00
58775;BME280;44545;47.480;19.024;2022-11-15T13:16:01;100144.66;;;7.70;100.00
58775;BME280;44545;47.480;19.024;2022-11-15T13:19:04;100144.69;;;7.56;100.00
58775;BME280;44545;47.480;19.024;2022-11-15T13:22:09;100140.19;;;7.54;100.00
58775;BME280;44545;47.480;19.024;2022-11-15T13:26:02;100136.88;;;7.70;100.00
58775;BME280;44545;47.480;19.024;2022-11-15T13:29:25;100135.84;;;7.53;100.00
58775;BME280;44545;47.480;19.024;2022-11-15T13:32:27;100121.75;;;7.49;100.00
58775;BME280;44545;47.480;19.024;2022-11-15T13:35:32;100115.91;;;7.67;100.00
58775;BME280;44545;47.480;19.024;2022-11-15T13:38:39;100116.53;;;7.91;100.00
58775;BME280;44545;47.480;19.024;2022-11-15T13:41:46;100109.69;;;7.78;100.00
58775;BME280;44545;47.480;19.024;2022-11-15T13:44:59;100109.47;;;8.03;100.00
58775;BME280;44545;47.480;19.024;2022-11-15T13:48:03;100100.22;;;7.93;100.00
58775;BME280;44545;47.480;19.024;2022-11-15T13:54:35;100088.03;;;7.92;100.00
58775;BME280;44545;47.480;19.024;2022-11-15T13:57:42;100093.12;;;7.76;100.00
58775;BME280;44545;47.480;19.024;2022-11-15T14:00:46;100082.38;;;7.70;100.00
58775;BME280;44545;47.480;19.024;2022-11-15T14:03:59;100084.44;;;7.75;100.00
58775;BME280;44545;47.480;19.024;2022-11-15T14:07:02;100083.09;;;7.67;100.00
58775;BME280;44545;47.480;19.024;2022-11-15T14:10:26;100076.19;;;7.68;100.00
58775;BME280;44545;47.480;19.024;2022-11-15T14:13:31;100081.88;;;7.62;100.00
58775;BME280;44545;47.480;19.024;2022-11-15T14:16:38;100081.28;;;7.66;100.00
58775;BME280;44545;47.480;19.024;2022-11-15T14:19:41;100075.56;;;7.72;100.00
58775;BME280;44545;47.480;19.024;2022-11-15T14:22:51;100075.88;;;7.48;100.00
58775;BME280;44545;47.480;19.024;2022-11-15T14:25:58;100067.50;;;7.39;100.00
58775;BME280;44545;47.480;19.024;2022-11-15T14:29:23;100066.72;;;7.40;100.00
58775;BME280;44545;47.480;19.024;2022-11-15T14:32:43;100055.81;;;7.46;100.00
58775;BME280;44545;47.480;19.024;2022-11-15T14:35:46;100056.59;;;7.30;100.00
58775;BME280;44545;47.480;19.024;2022-11-15T14:38:48;100051.94;;;7.39;100.00
58775;BME280;44545;47.480;19.024;2022-11-15T14:41:51;100050.78;;;7.34;100.00
58775;BME280;44545;47.480;19.024;2022-11-15T14:44:53;100050.63;;;7.46;100.00
58775;BME280;44545;47.480;19.024;2022-11-15T14:47:55;100046.34;;;7.46;100.00
58775;BME280;44545;47.480;19.024;2022-11-15T14:50:57;100034.78;;;7.41;100.00
58775;BME280;44545;47.480;19.024;2022-11-15T14:54:00;100032.75;;;7.50;100.00
58775;BME280;44545;47.480;19.024;2022-11-15T14:57:02;100035.41;;;7.37;100.00
58775;BME280;44545;47.480;19.024;2022-11-15T15:00:04;100044.50;;;7.30;100.00
58775;BME280;44545;47.480;19.024;2022-11-15T15:03:13;100027.06;;;7.28;100.00
58775;BME280;44545;47.480;19.024;2022-11-15T15:06:15;100030.41;;;7.40;100.00
58775;BME280;44545;47.480;19.024;2022-11-15T15:09:19;100025.22;;;7.40;100.00
58775;BME280;44545;47.480;19.024;2022-11-15T15:12:22;100028.59;;;7.39;100.00
58775;BME280;44545;47.480;19.024;2022-11-15T15:15:31;100022.91;;;7.45;100.00
58775;BME280;44545;47.480;19.024;2022-11-15T15:18:34;100021.66;;;7.53;100.00
58775;BME280;44545;47.480;19.024;2022-11-15T15:21:37;100020.81;;;7.39;100.00
58775;BME280;44545;47.480;19.024;2022-11-15T15:24:39;100009.66;;;7.40;100.00
58775;BME280;44545;47.480;19.024;2022-11-15T15:27:41;100004.81;;;7.46;100.00
58775;BME280;44545;47.480;19.024;2022-11-15T15:30:44;100006.25;;;7.41;100.00
58775;BME280;44545;47.480;19.024;2022-11-15T15:33:46;100016.44;;;7.38;100.00
58775;BME280;44545;47.480;19.024;2022-11-15T15:36:48;100026.47;;;7.47;100.00
58775;BME280;44545;47.480;19.024;2022-11-15T15:39:52;100018.44;;;7.42;100.00
58775;BME280;44545;47.480;19.024;2022-11-15T15:42:54;100023.75;;;7.30;100.00
58775;BME280;44545;47.480;19.024;2022-11-15T15:45:56;100026.78;;;7.23;100.00
58775;BME280;44545;47.480;19.024;2022-11-15T15:48:59;100021.94;;;7.14;100.00
58775;BME280;44545;47.480;19.024;2022-11-15T15:52:01;100016.81;;;7.16;100.00
58775;BME280;44545;47.480;19.024;2022-11-15T15:55:03;100012.44;;;7.15;100.00
58775;BME280;44545;47.480;19.024;2022-11-15T15:58:05;100018.16;;;7.09;100.00
58775;BME280;44545;47.480;19.024;2022-11-15T16:01:08;100008.38;;;7.05;100.00
58775;BME280;44545;47.480;19.024;2022-11-15T16:04:11;100005.44;;;6.99;100.00
58775;BME280;44545;47.480;19.024;2022-11-15T16:07:17;100003.37;;;7.22;100.00
58775;BME280;44545;47.480;19.024;2022-11-15T16:10:29;100005.94;;;7.22;100.00
58775;BME280;44545;47.480;19.024;2022-11-15T16:13:31;99998.88;;;7.19;100.00
58775;BME280;44545;47.480;19.024;2022-11-15T16:16:34;100011.75;;;7.18;100.00
58775;BME280;44545;47.480;19.024;2022-11-15T16:19:37;100012.25;;;7.12;100.00
58775;BME280;44545;47.480;19.024;2022-11-15T16:22:40;100006.09;;;7.10;100.00
58775;BME280;44545;47.480;19.024;2022-11-15T16:25:53;100006.09;;;7.10;100.00
58775;BME280;44545;47.480;19.024;2022-11-15T16:28:57;100001.38;;;7.18;100.00
58775;BME280;44545;47.480;19.024;2022-11-15T16:31:59;99993.81;;;7.07;100.00
